Thunder radar more information blitzortung!


Radar de pluja more information rain snow radar


Visita la nostra xarxa de llocs de meteo:

Template documentation
and downloads

And another site



No particular awareness of the weather is required.    There are no Weather-warnings

Pagina Historial Weather Underground text

Diari Resum Juny 4, 2017 Unitats:  Imperial    Mètric   Tant
« Previous Dia
SegĂźent Dia »
Diari Setmana Mensual Anual Personalitzada
  Maxima: Minima: Media:
Temperatura: TemperatureC °F 15.0 °F 20.4 °F
Punt de rosada: DewpointC °F 10.3 °F 13.8 °F
Humitat: Humidity % 51 % 66 %
Wind Speed: WindSpeedKMH mph 0.0 mph 3.7 mph
RĂ fegues de vent: WindSpeedGustKMH mph - -
Vent:- - South
Pression baro: PressurehPa in 1012.8 in -
Precipitacions: 3.0 in    
Historical Graphs
 
 
Dades de taula per Juny 4, 2017
Temps Temperatura Punt de rosada Pression baro Vent Wind Speed RĂ fegues de vent Humitat Rainfall Rate (Hourly)
TemperatureC °F DewpointC °F PressurehPa in Calm     Humidity % HourlyPrecipMM in
00:00 20.1 °F 10.5 °F 1015.8 in ENE 4.7 mph 4.7 mph 54 % 0.0 in
00:05 19.9 °F 10.3 °F 1016.8 in NE 11.1 mph 11.1 mph 54 % 0.0 in
00:10 17.3 °F 12.2 °F 1015.8 in NNE 3.2 mph 4.8 mph 72 % 0.0 in
00:20 17.2 °F 11.9 °F 1015.8 in North 1.6 mph 4.8 mph 71 % 0.0 in
00:30 17.1 °F 11.8 °F 1015.8 in WNW 1.6 mph 3.2 mph 71 % 0.0 in
00:40 16.9 °F 12.0 °F 1016.8 in WSW 1.6 mph 3.2 mph 73 % 0.0 in
00:50 16.9 °F 12.0 °F 1015.8 in SW 1.6 mph 3.2 mph 73 % 0.0 in
01:00 16.9 °F 12.0 °F 1015.8 in Calm     73 % 0.0 in
01:10 16.9 °F 12.0 °F 1015.8 in WSW 1.6 mph 3.2 mph 73 % 0.0 in
01:20 16.8 °F 12.1 °F 1015.8 in WSW 1.6 mph 3.2 mph 74 % 0.0 in
01:30 16.7 °F 12.2 °F 1015.8 in WSW 1.6 mph 3.2 mph 75 % 0.0 in
01:40 16.6 °F 12.2 °F 1015.8 in WSW 1.6 mph 3.2 mph 75 % 0.0 in
01:50 16.6 °F 12.3 °F 1015.8 in WSW 3.2 mph 3.2 mph 76 % 0.0 in
02:00 16.8 °F 12.7 °F 1015.8 in WSW 1.6 mph 3.2 mph 77 % 0.0 in
02:10 17.0 °F 12.7 °F 1015.8 in Calm   3.2 mph 76 % 0.0 in
02:20 17.0 °F 12.7 °F 1015.8 in Calm   1.6 mph 76 % 0.0 in
02:30 17.2 °F 12.9 °F 1015.8 in Calm   3.2 mph 76 % 0.0 in
02:40 17.3 °F 12.8 °F 1015.8 in WSW 1.6 mph 1.6 mph 75 % 0.0 in
02:50 17.5 °F 13.0 °F 1015.8 in Calm   3.2 mph 75 % 0.0 in
03:00 17.6 °F 13.1 °F 1015.8 in SW 1.6 mph 3.2 mph 75 % 0.0 in
03:20 18.3 °F 13.6 °F 1016.8 in Calm   1.6 mph 74 % 0.0 in
03:30 18.7 °F 13.8 °F 1016.8 in Calm   3.2 mph 73 % 0.0 in
03:40 18.7 °F 13.8 °F 1016.8 in NW 3.2 mph 3.2 mph 73 % 0.0 in
03:50 18.6 °F 13.2 °F 1016.8 in NNE 3.2 mph 4.8 mph 71 % 0.0 in
04:00 19.0 °F 13.2 °F 1016.8 in NNE 1.6 mph 1.6 mph 69 % 0.0 in
04:10 19.0 °F 13.4 °F 1016.8 in NE 1.6 mph 3.2 mph 70 % 0.0 in
04:20 19.2 °F 13.8 °F 1017.8 in ENE 1.6 mph 3.2 mph 71 % 0.0 in
04:30 19.5 °F 14.1 °F 1017.8 in Calm   3.2 mph 71 % 0.0 in
04:40 19.8 °F 14.2 °F 1016.8 in SW 1.6 mph 3.2 mph 70 % 0.0 in
04:50 19.6 °F 14.2 °F 1016.8 in ESE 4.8 mph 6.4 mph 71 % 0.0 in
05:00 19.8 °F 13.9 °F 1016.8 in East 1.6 mph 3.2 mph 69 % 0.0 in
05:10 19.9 °F 13.6 °F 1016.8 in NE 4.8 mph 6.4 mph 67 % 0.0 in
05:20 20.0 °F 13.4 °F 1015.8 in NE 4.8 mph 6.4 mph 66 % 0.0 in
05:30 20.2 °F 13.7 °F 1015.8 in ENE 3.2 mph 6.4 mph 66 % 0.0 in
05:40 20.4 °F 13.8 °F 1017.8 in SW 1.6 mph 4.8 mph 66 % 0.0 in
05:50 20.4 °F 13.8 °F 1016.8 in WSW 3.2 mph 6.4 mph 66 % 0.0 in
06:00 20.4 °F 13.6 °F 1016.8 in West 4.8 mph 12.9 mph 65 % 0.0 in
06:10 20.9 °F 14.1 °F 1017.8 in WNW 3.2 mph 8.0 mph 65 % 0.0 in
06:20 21.5 °F 14.4 °F 1017.8 in West 3.2 mph 6.4 mph 64 % 0.0 in
06:30 22.6 °F 14.9 °F 1017.8 in West 3.2 mph 4.8 mph 62 % 0.0 in
06:35 22.6 °F 14.4 °F 1016.8 in West 3.2 mph 8.0 mph 60 % 0.0 in
11:36 22.7 °F 14.6 °F 1016.8 in ESE 9.3 mph 9.3 mph 60 % 0.0 in
11:41 22.8 °F 14.4 °F 1016.8 in WNW 9.3 mph 9.3 mph 59 % 0.0 in
11:46 23.1 °F 14.7 °F 1016.8 in NNE 5.8 mph 5.8 mph 59 % 0.0 in
11:51 22.8 °F 14.1 °F 1015.8 in East 5.6 mph 5.6 mph 58 % 0.0 in
11:56 22.8 °F 14.1 °F 1015.8 in NNE 7.4 mph 7.4 mph 58 % 0.0 in
12:01 23.1 °F 14.4 °F 1015.8 in WNW 3.7 mph 3.7 mph 58 % 0.0 in
12:06 23.3 °F 14.6 °F 1015.8 in NW 5.6 mph 5.6 mph 58 % 0.0 in
12:11 23.5 °F 14.5 °F 1015.8 in NNE 5.6 mph 5.6 mph 57 % 0.0 in
12:16 22.9 °F 13.7 °F 1015.8 in NE 9.3 mph 9.3 mph 56 % 0.0 in
12:21 22.7 °F 13.7 °F 1015.8 in ENE 7.6 mph 7.6 mph 57 % 0.0 in
12:26 23.3 °F 14.1 °F 1015.8 in East 3.7 mph 3.7 mph 56 % 0.0 in
12:31 23.4 °F 13.8 °F 1015.8 in NW 7.4 mph 7.4 mph 55 % 0.0 in
12:36 23.1 °F 13.6 °F 1015.8 in WSW 5.6 mph 5.6 mph 55 % 0.0 in
12:41 22.9 °F 13.7 °F 1015.8 in NNE 7.4 mph 7.4 mph 56 % 0.0 in
12:45 18.2 °F 15.1 °F 1012.8 in WNW 4.8 mph 12.9 mph 82 % 0.0 in
12:46 23.1 °F 13.8 °F 1015.8 in NE 5.6 mph 5.6 mph 56 % 0.0 in
12:51 23.2 °F 13.7 °F 1015.8 in ENE 7.4 mph 7.4 mph 55 % 0.0 in
12:56 23.6 °F 14.1 °F 1015.8 in NNE 5.6 mph 5.6 mph 55 % 0.0 in
13:01 23.6 °F 14.1 °F 1015.8 in East 7.4 mph 7.4 mph 55 % 0.0 in
13:06 23.7 °F 13.8 °F 1015.8 in NNE 9.3 mph 9.3 mph 54 % 0.0 in
13:11 24.2 °F 14.0 °F 1015.8 in NW 7.4 mph 7.4 mph 53 % 0.0 in
13:16 23.7 °F 13.6 °F 1015.8 in East 3.7 mph 4.2 mph 53 % 0.0 in
13:21 23.5 °F 13.4 °F 1015.8 in NE 5.6 mph 5.6 mph 53 % 0.0 in
13:26 23.2 °F 12.8 °F 1015.8 in NNW 6.9 mph 6.9 mph 52 % 0.0 in
13:31 23.3 °F 13.2 °F 1015.8 in NE 3.7 mph 3.7 mph 53 % 0.0 in
13:36 24.1 °F 13.6 °F 1015.8 in SSW 3.2 mph 3.2 mph 52 % 0.0 in
13:41 24.5 °F 14.3 °F 1015.8 in WSW 5.6 mph 5.6 mph 53 % 0.0 in
13:46 24.2 °F 13.7 °F 1015.8 in SSW 9.3 mph 9.3 mph 52 % 0.0 in
13:51 24.0 °F 13.8 °F 1015.8 in West 7.4 mph 7.4 mph 53 % 0.0 in
13:56 23.9 °F 13.7 °F 1015.8 in West 5.6 mph 5.6 mph 53 % 0.0 in
14:01 23.8 °F 13.7 °F 1015.8 in SW 5.6 mph 5.6 mph 53 % 0.0 in
14:06 23.8 °F 13.3 °F 1015.8 in South 5.6 mph 5.6 mph 52 % 0.0 in
14:11 24.1 °F 13.3 °F 1015.8 in WSW 7.4 mph 7.4 mph 51 % 0.0 in
14:16 24.0 °F 13.2 °F 1015.8 in NW 6.4 mph 6.4 mph 51 % 0.0 in
14:18 24.1 °F 13.3 °F 1015.8 in WSW 7.4 mph 7.4 mph 51 % 0.0 in
14:23 24.1 °F 13.3 °F 1014.8 in West 3.9 mph 3.9 mph 51 % 0.0 in
14:28 24.1 °F 13.3 °F 1014.8 in West 3.9 mph 3.9 mph 51 % 0.0 in
14:33 24.1 °F 13.3 °F 1014.8 in West 3.9 mph 3.9 mph 51 % 0.0 in
14:38 24.1 °F 13.3 °F 1014.8 in West 3.9 mph 3.9 mph 51 % 0.0 in
14:43 24.1 °F 13.3 °F 1014.8 in West 3.9 mph 3.9 mph 51 % 0.0 in
14:48 24.1 °F 13.3 °F 1014.8 in West 3.9 mph 3.9 mph 51 % 0.0 in
14:53 24.1 °F 13.3 °F 1014.8 in West 3.9 mph 3.9 mph 51 % 0.0 in
14:58 24.1 °F 13.3 °F 1014.8 in West 3.9 mph 3.9 mph 51 % 0.0 in
15:03 24.1 °F 13.3 °F 1014.8 in West 3.9 mph 3.9 mph 51 % 0.0 in
15:08 24.1 °F 13.3 °F 1014.8 in West 3.9 mph 3.9 mph 51 % 0.0 in
15:13 24.1 °F 13.3 °F 1014.8 in West 3.9 mph 3.9 mph 51 % 0.0 in
15:18 24.1 °F 13.3 °F 1014.8 in West 3.9 mph 3.9 mph 51 % 0.0 in
15:23 24.1 °F 13.3 °F 1014.8 in West 3.9 mph 3.9 mph 51 % 0.0 in
15:28 24.1 °F 13.3 °F 1014.8 in West 3.9 mph 3.9 mph 51 % 0.0 in
15:33 24.1 °F 13.3 °F 1014.8 in West 3.9 mph 3.9 mph 51 % 0.0 in
15:38 24.1 °F 13.3 °F 1014.8 in West 3.9 mph 3.9 mph 51 % 0.0 in
15:43 24.1 °F 13.3 °F 1014.8 in West 3.9 mph 3.9 mph 51 % 0.0 in
15:48 24.1 °F 13.3 °F 1014.8 in West 3.9 mph 3.9 mph 51 % 0.0 in
15:53 24.1 °F 13.3 °F 1014.8 in West 3.9 mph 3.9 mph 51 % 0.0 in
15:58 24.1 °F 13.3 °F 1014.8 in West 3.9 mph 3.9 mph 51 % 0.0 in
16:03 24.1 °F 13.3 °F 1014.8 in West 3.9 mph 3.9 mph 51 % 0.0 in
16:08 24.1 °F 13.3 °F 1014.8 in West 3.9 mph 3.9 mph 51 % 0.0 in
16:13 24.1 °F 13.3 °F 1014.8 in West 3.9 mph 3.9 mph 51 % 0.0 in
16:18 24.1 °F 13.3 °F 1014.8 in West 3.9 mph 3.9 mph 51 % 0.0 in
16:23 24.1 °F 13.3 °F 1014.8 in West 3.9 mph 3.9 mph 51 % 0.0 in
16:28 24.1 °F 13.3 °F 1014.8 in West 3.9 mph 3.9 mph 51 % 0.0 in
16:33 24.1 °F 13.3 °F 1014.8 in West 3.9 mph 3.9 mph 51 % 0.0 in
16:38 24.1 °F 13.3 °F 1014.8 in West 3.9 mph 3.9 mph 51 % 0.0 in
16:43 24.1 °F 13.3 °F 1014.8 in West 3.9 mph 3.9 mph 51 % 0.0 in
16:48 24.1 °F 13.3 °F 1014.8 in West 3.9 mph 3.9 mph 51 % 0.0 in
16:53 24.1 °F 13.3 °F 1014.8 in West 3.9 mph 3.9 mph 51 % 0.0 in
16:58 24.1 °F 13.3 °F 1014.8 in West 3.9 mph 3.9 mph 51 % 0.0 in
17:03 24.1 °F 13.3 °F 1014.8 in West 3.9 mph 3.9 mph 51 % 0.0 in
17:08 24.1 °F 13.3 °F 1014.8 in West 3.9 mph 3.9 mph 51 % 0.0 in
17:13 24.1 °F 13.3 °F 1014.8 in West 3.9 mph 3.9 mph 51 % 0.0 in
17:18 24.1 °F 13.3 °F 1014.8 in West 3.9 mph 3.9 mph 51 % 0.0 in
17:23 24.1 °F 13.3 °F 1014.8 in West 3.9 mph 3.9 mph 51 % 0.0 in
17:28 24.1 °F 13.3 °F 1014.8 in West 3.9 mph 3.9 mph 51 % 0.0 in
17:33 24.1 °F 13.3 °F 1014.8 in West 3.9 mph 3.9 mph 51 % 0.0 in
17:38 24.1 °F 13.3 °F 1014.8 in West 3.9 mph 3.9 mph 51 % 0.0 in
17:45 18.2 °F 15.1 °F 1012.8 in WNW 13.0 mph 13.0 mph 82 % 0.0 in
17:50 18.3 °F 15.0 °F 1013.8 in NNE 9.3 mph 9.3 mph 81 % 3.0 in
17:55 18.4 °F 15.1 °F 1013.8 in ENE 7.4 mph 7.4 mph 81 % 3.0 in
18:00 18.5 °F 15.2 °F 1013.8 in ENE 7.4 mph 7.4 mph 81 % 3.0 in
18:05 18.5 °F 15.0 °F 1013.8 in NE 9.3 mph 9.3 mph 80 % 3.0 in
18:10 18.6 °F 14.9 °F 1013.8 in NNE 5.6 mph 5.6 mph 79 % 3.0 in
18:11 18.6 °F 14.9 °F 1013.8 in NNE 5.6 mph 5.6 mph 79 % 3.0 in
18:16 18.8 °F 15.3 °F 1013.8 in East 6.4 mph 6.4 mph 80 % 3.0 in
18:21 18.7 °F 15.0 °F 1013.8 in NNE 9.3 mph 9.3 mph 79 % 3.0 in
18:26 18.6 °F 14.7 °F 1013.8 in NNE 11.1 mph 11.1 mph 78 % 3.0 in
18:31 19.1 °F 15.2 °F 1013.8 in NNW 3.7 mph 3.7 mph 78 % 3.0 in
18:36 19.4 °F 15.3 °F 1013.8 in North 6.1 mph 6.1 mph 77 % 3.0 in
18:41 19.6 °F 15.3 °F 1013.8 in ENE 5.6 mph 5.6 mph 76 % 3.0 in
18:46 19.6 °F 15.1 °F 1013.8 in NE 5.3 mph 5.3 mph 75 % 3.0 in
18:51 19.7 °F 14.9 °F 1013.8 in NNE 5.8 mph 5.8 mph 74 % 0.0 in
18:56 19.6 °F 14.6 °F 1013.8 in NE 5.6 mph 5.6 mph 73 % 0.0 in
19:01 19.8 °F 14.8 °F 1013.8 in NE 3.7 mph 3.7 mph 73 % 0.0 in
19:06 19.8 °F 14.8 °F 1012.8 in NE 5.6 mph 5.6 mph 73 % 0.0 in
19:11 19.8 °F 14.8 °F 1012.8 in NNE 5.6 mph 5.6 mph 73 % 0.0 in
19:16 19.8 °F 14.6 °F 1012.8 in East 3.2 mph 3.2 mph 72 % 0.0 in
19:21 19.8 °F 14.6 °F 1013.8 in NNE 3.7 mph 3.7 mph 72 % 0.0 in
19:26 19.6 °F 14.4 °F 1013.8 in ENE 5.6 mph 5.6 mph 72 % 0.0 in
19:31 19.6 °F 14.4 °F 1013.8 in NNE 5.6 mph 5.6 mph 72 % 0.0 in
19:36 19.6 °F 14.4 °F 1013.8 in ENE 5.0 mph 5.0 mph 72 % 0.0 in
19:41 19.8 °F 14.8 °F 1013.8 in NNE 1.9 mph 1.9 mph 73 % 0.0 in
19:46 19.8 °F 14.6 °F 1013.8 in NE 3.7 mph 3.7 mph 72 % 0.0 in
19:51 19.7 °F 14.5 °F 1012.8 in North 3.7 mph 3.7 mph 72 % 0.0 in
19:56 19.7 °F 14.5 °F 1012.8 in WNW 1.9 mph   72 % 0.0 in
20:01 19.8 °F 14.6 °F 1012.8 in ENE 1.9 mph   72 % 0.0 in
20:06 19.8 °F 14.6 °F 1013.8 in ENE 2.6 mph 2.6 mph 72 % 0.0 in
20:11 19.8 °F 14.6 °F 1013.8 in ENE 2.6 mph 2.6 mph 72 % 0.0 in
20:16 19.7 °F 14.5 °F 1013.8 in East 5.6 mph 5.6 mph 72 % 0.0 in
20:21 19.6 °F 14.4 °F 1013.8 in East 1.9 mph   72 % 0.0 in
20:26 19.7 °F 14.5 °F 1013.8 in Calm     72 % 0.0 in
20:31 19.8 °F 14.6 °F 1013.8 in Calm     72 % 0.0 in
20:36 19.7 °F 14.7 °F 1012.8 in SSE 3.7 mph 3.7 mph 73 % 0.0 in
20:41 19.7 °F 14.7 °F 1012.8 in WSW 1.9 mph 1.9 mph 73 % 0.0 in
20:46 19.7 °F 14.7 °F 1012.8 in WSW 3.7 mph 3.7 mph 73 % 0.0 in
20:51 19.6 °F 14.8 °F 1013.8 in WSW 3.7 mph 3.7 mph 74 % 0.0 in
20:56 19.5 °F 14.7 °F 1013.8 in NE 1.4 mph   74 % 0.0 in
21:01 19.3 °F 14.6 °F 1013.8 in NE 3.7 mph 3.7 mph 74 % 0.0 in
21:06 19.2 °F 14.4 °F 1012.8 in Calm     74 % 0.0 in
21:11 19.1 °F 14.2 °F 1012.8 in ENE 3.7 mph 3.7 mph 73 % 0.0 in
21:16 19.1 °F 14.2 °F 1012.8 in NE 1.9 mph 1.9 mph 73 % 0.0 in
21:21 19.0 °F 14.1 °F 1012.8 in NNE 5.0 mph 5.0 mph 73 % 0.0 in
21:26 19.0 °F 14.1 °F 1012.8 in NNE 1.9 mph 1.9 mph 73 % 0.0 in
21:31 18.9 °F 14.2 °F 1012.8 in ENE 1.9 mph   74 % 0.0 in
21:36 18.9 °F 14.2 °F 1012.8 in Calm     74 % 0.0 in
21:41 18.8 °F 14.1 °F 1012.8 in ENE 1.9 mph 1.9 mph 74 % 0.0 in
21:46 18.8 °F 14.1 °F 1012.8 in NE 3.7 mph 3.7 mph 74 % 0.0 in
21:51 18.8 °F 14.1 °F 1012.8 in Calm     74 % 0.0 in
21:56 18.8 °F 14.3 °F 1012.8 in Calm     75 % 0.0 in
22:01 18.7 °F 14.2 °F 1012.8 in NE 1.9 mph 1.9 mph 75 % 0.0 in
22:06 18.7 °F 14.2 °F 1012.8 in Calm     75 % 0.0 in
22:10 16.4 °F 13.7 °F 1013.8 in Calm     84 % 0.0 in
22:11 18.6 °F 14.1 °F 1012.8 in NNE 1.9 mph   75 % 0.0 in
22:16 18.6 °F 14.1 °F 1012.8 in NE 3.7 mph 3.7 mph 75 % 0.0 in
22:20 16.5 °F 13.9 °F 1013.8 in Calm   1.6 mph 85 % 0.0 in
22:21 18.6 °F 14.3 °F 1013.8 in NNE 3.7 mph 3.7 mph 76 % 0.0 in
22:26 18.6 °F 14.3 °F 1013.8 in NE 3.2 mph 3.2 mph 76 % 0.0 in
22:30 16.3 °F 13.8 °F 1013.8 in WNW 1.6 mph 3.2 mph 85 % 0.0 in
22:31 18.5 °F 14.2 °F 1013.8 in NNE 1.9 mph   76 % 0.0 in
22:36 18.5 °F 14.2 °F 1013.8 in Calm     76 % 0.0 in
22:40 16.1 °F 13.6 °F 1013.8 in West 3.2 mph 4.8 mph 85 % 1.0 in
22:41 18.5 °F 14.4 °F 1013.8 in Calm     77 % 0.0 in
22:46 18.5 °F 14.4 °F 1013.8 in Calm     77 % 0.0 in
22:50 15.9 °F 13.6 °F 1013.8 in WSW 3.2 mph 3.2 mph 86 % 1.0 in
22:51 18.4 °F 14.3 °F 1013.8 in Calm     77 % 0.0 in
22:56 18.5 °F 14.4 °F 1013.8 in NNW 1.9 mph 1.9 mph 77 % 0.0 in
23:00 15.7 °F 13.4 °F 1013.8 in SW 3.2 mph 3.2 mph 86 % 1.0 in
23:01 18.4 °F 14.3 °F 1013.8 in NNE 1.9 mph   77 % 0.0 in
23:06 18.5 °F 14.4 °F 1013.8 in WNW 1.4 mph   77 % 0.0 in
23:10 15.6 °F 13.4 °F 1013.8 in SW 1.6 mph 3.2 mph 87 % 1.0 in
23:11 18.5 °F 14.4 °F 1013.8 in Calm     77 % 0.0 in
23:16 18.5 °F 14.4 °F 1013.8 in NNE 1.9 mph 1.9 mph 77 % 0.0 in
23:20 15.5 °F 13.3 °F 1013.8 in Calm   3.2 mph 87 % 0.0 in
23:21 18.5 °F 14.4 °F 1013.8 in NE 4.2 mph   77 % 0.0 in
23:26 18.5 °F 14.4 °F 1013.8 in SW 1.9 mph   77 % 0.0 in
23:30 15.4 °F 13.4 °F 1013.8 in Calm   1.6 mph 88 % 0.0 in
23:31 18.6 °F 14.5 °F 1013.8 in WSW 1.9 mph 1.9 mph 77 % 0.0 in
23:36 18.4 °F 14.5 °F 1013.8 in SW 1.9 mph 1.9 mph 78 % 0.0 in
23:40 15.2 °F 13.4 °F 1012.8 in Calm   3.2 mph 89 % 1.3 in
23:41 18.2 °F 14.5 °F 1013.8 in SW 2.6 mph   79 % 0.0 in
23:46 18.2 °F 14.5 °F 1013.8 in Calm     79 % 0.0 in
23:50 15.0 °F 13.0 °F 1013.8 in SW 3.2 mph 4.8 mph 88 % 1.3 in
23:51 18.1 °F 14.6 °F 1012.8 in Calm     80 % 0.0 in
23:56 18.1 °F 14.6 °F 1012.8 in Calm     80 % 0.0 in
Meteo Sesrovires
Elogis d' Weather Underground - 3.5 mb

Guio original per  Jim McMurry - jmcmurry@mwt.net Adaptat per a la plantilla per  Wim van der Kuil - Leuven-Template.eu

Trobareu la nostra informacio del temps tambe a:

Weather Underground

AWEKAS